createdAt,value
2018-02-15T00:00:35.971Z,19.52
2018-02-15T00:03:03.393Z,22.83
2018-02-15T00:05:31.521Z,14.70
2018-02-15T00:07:58.949Z,17.63
2018-02-15T00:10:26.363Z,16.13
2018-02-15T00:12:53.777Z,24.63
2018-02-15T00:15:21.198Z,21.57
2018-02-15T00:17:48.617Z,20.85
2018-02-15T00:20:16.032Z,25.53
2018-02-15T00:22:43.457Z,20.20
2018-02-15T00:25:10.860Z,25.33
2018-02-15T00:27:38.291Z,20.47
2018-02-15T00:30:05.688Z,17.37
2018-02-15T00:32:33.103Z,22.40
2018-02-15T00:35:00.530Z,19.07
2018-02-15T00:37:27.933Z,20.80
2018-02-15T00:39:55.356Z,19.80
2018-02-15T00:42:22.759Z,18.30
2018-02-15T00:44:50.186Z,25.07
2018-02-15T00:47:17.649Z,29.63
2018-02-15T00:49:45.062Z,27.23
2018-02-15T00:52:12.468Z,27.53
2018-02-15T00:54:40.297Z,25.43
2018-02-15T00:57:07.701Z,24.92
2018-02-15T00:59:35.151Z,20.90
2018-02-15T01:02:03.561Z,23.35
2018-02-15T01:04:30.980Z,19.20
2018-02-15T01:06:58.398Z,21.05
2018-02-15T01:09:25.808Z,22.93
2018-02-15T01:11:53.837Z,22.40
2018-02-15T01:14:21.253Z,24.17
2018-02-15T01:16:48.664Z,27.33
2018-02-15T01:19:16.081Z,21.70
2018-02-15T01:21:43.493Z,23.93
2018-02-15T01:24:10.921Z,24.20
2018-02-15T01:26:38.333Z,18.20
2018-02-15T01:29:05.748Z,23.63
2018-02-15T01:31:33.161Z,23.00
2018-02-15T01:34:00.588Z,22.00
2018-02-15T01:36:28.005Z,20.10
2018-02-15T01:38:55.417Z,22.23
2018-02-15T01:41:22.836Z,19.07
2018-02-15T01:43:50.278Z,26.63
2018-02-15T01:46:17.672Z,21.70
2018-02-15T01:48:45.093Z,25.17
2018-02-15T01:51:12.513Z,22.10
2018-02-15T01:53:39.966Z,22.25
2018-02-15T01:56:07.348Z,18.17
2018-02-15T01:58:35.309Z,19.20
2018-02-15T02:01:02.728Z,21.80
2018-02-15T02:03:30.145Z,17.93
2018-02-15T02:05:57.563Z,28.63
2018-02-15T02:08:24.973Z,25.87
2018-02-15T02:10:52.379Z,23.83
2018-02-15T02:13:19.798Z,22.47
2018-02-15T02:15:47.287Z,25.07
2018-02-15T02:18:14.701Z,21.97
2018-02-15T02:20:42.122Z,22.33
2018-02-15T02:23:09.524Z,20.13
2018-02-15T02:25:36.956Z,24.30
2018-02-15T02:28:04.379Z,22.07
2018-02-15T02:30:31.809Z,18.40
2018-02-15T02:32:59.229Z,22.47
2018-02-15T02:35:26.649Z,19.27
2018-02-15T02:37:54.069Z,21.50
2018-02-15T02:40:21.476Z,21.27
2018-02-15T02:42:48.899Z,24.33
2018-02-15T02:45:16.309Z,20.07
2018-02-15T02:47:43.728Z,26.23
2018-02-15T02:50:11.133Z,20.90
2018-02-15T02:52:38.566Z,20.03
2018-02-15T02:55:05.977Z,21.87
2018-02-15T02:57:33.403Z,21.70
2018-02-15T03:00:00.813Z,23.73
2018-02-15T03:02:28.245Z,22.13
2018-02-15T03:04:55.653Z,22.23
2018-02-15T03:07:23.076Z,18.27
2018-02-15T03:09:50.500Z,21.87
2018-02-15T03:12:17.921Z,20.37
2018-02-15T03:14:45.329Z,19.00
2018-02-15T03:17:12.883Z,18.50
2018-02-15T03:19:40.292Z,21.00
2018-02-15T03:22:08.248Z,19.35
2018-02-15T03:24:35.659Z,17.20
2018-02-15T03:27:03.068Z,17.40
2018-02-15T03:29:30.479Z,16.20
2018-02-15T03:31:57.909Z,20.93
2018-02-15T03:34:25.316Z,21.97
2018-02-15T03:36:52.736Z,18.87
2018-02-15T03:39:20.136Z,17.93
2018-02-15T03:41:47.569Z,17.20
2018-02-15T03:44:14.985Z,19.48
2018-02-15T03:46:42.401Z,17.83
2018-02-15T03:49:09.823Z,14.60
2018-02-15T03:51:37.240Z,15.80
2018-02-15T03:54:04.648Z,19.00
2018-02-15T03:56:32.375Z,17.17
2018-02-15T03:58:59.808Z,17.60
2018-02-15T04:01:27.222Z,17.70
2018-02-15T04:03:54.649Z,18.48
2018-02-15T04:06:22.060Z,17.93
2018-02-15T04:08:49.474Z,21.60
2018-02-15T04:11:16.880Z,20.67
2018-02-15T04:13:44.303Z,30.03
2018-02-15T04:16:11.707Z,23.73
2018-02-15T04:18:39.117Z,16.93
2018-02-15T04:21:06.537Z,14.57
2018-02-15T04:23:33.961Z,17.80
2018-02-15T04:26:01.356Z,15.93
2018-02-15T04:28:28.776Z,18.87
2018-02-15T04:30:56.201Z,16.58
2018-02-15T04:33:23.616Z,17.27
2018-02-15T04:35:51.025Z,17.83
2018-02-15T04:38:18.445Z,16.37
2018-02-15T04:40:45.852Z,21.27
2018-02-15T04:43:13.273Z,37.30
2018-02-15T04:45:40.686Z,16.73
2018-02-15T04:48:08.109Z,26.20
2018-02-15T04:50:35.518Z,23.77
2018-02-15T04:53:02.937Z,24.33
2018-02-15T04:55:30.356Z,25.40
2018-02-15T04:57:57.839Z,30.63
2018-02-15T05:00:25.257Z,31.50
2018-02-15T05:02:52.665Z,29.13
2018-02-15T05:05:20.084Z,29.50
2018-02-15T05:07:47.516Z,26.12
2018-02-15T05:10:14.928Z,29.33
2018-02-15T05:12:43.025Z,24.52
2018-02-15T05:15:10.453Z,22.30
2018-02-15T05:17:37.868Z,24.57
2018-02-15T05:20:05.283Z,25.77
2018-02-15T05:22:32.700Z,24.20
2018-02-15T05:25:00.123Z,19.77
2018-02-15T05:27:27.537Z,21.17
2018-02-15T05:29:54.959Z,26.07
2018-02-15T05:32:22.364Z,21.90
2018-02-15T05:34:49.793Z,19.37
2018-02-15T05:37:17.193Z,17.57
2018-02-15T05:39:44.604Z,19.17
2018-02-15T05:42:12.004Z,20.50
2018-02-15T05:44:39.430Z,20.53
2018-02-15T05:47:06.840Z,21.40
2018-02-15T05:49:34.257Z,22.43
2018-02-15T05:52:01.666Z,19.12
2018-02-15T05:54:29.080Z,17.03
2018-02-15T05:56:56.500Z,18.77
2018-02-15T05:59:23.927Z,15.60
2018-02-15T06:01:51.328Z,17.87
2018-02-15T06:04:18.749Z,19.97
2018-02-15T06:06:46.164Z,17.00
2018-02-15T06:09:13.577Z,17.23
2018-02-15T06:11:40.988Z,17.20
2018-02-15T06:14:08.397Z,12.80
2018-02-15T06:16:35.812Z,15.27
2018-02-15T06:19:03.223Z,17.57
2018-02-15T06:21:30.644Z,19.03
2018-02-15T06:23:58.048Z,10.48
2018-02-15T06:26:25.452Z,12.70
2018-02-15T06:28:52.851Z,19.10
2018-02-15T06:31:20.282Z,13.40
2018-02-15T06:33:47.680Z,14.00
2018-02-15T06:36:15.107Z,13.00
2018-02-15T06:38:42.495Z,15.00
2018-02-15T06:41:09.912Z,12.20
2018-02-15T06:43:37.322Z,13.80
2018-02-15T06:46:04.730Z,13.37
2018-02-15T06:48:32.133Z,12.57
2018-02-15T06:50:59.558Z,16.33
2018-02-15T06:53:26.959Z,12.43
2018-02-15T06:55:54.368Z,14.60
2018-02-15T06:58:21.772Z,14.90
2018-02-15T07:00:49.956Z,15.00
2018-02-15T07:03:17.954Z,17.02
2018-02-15T07:05:45.380Z,15.80
2018-02-15T07:08:12.779Z,11.83
2018-02-15T07:10:40.190Z,13.80
2018-02-15T07:13:07.593Z,15.30
2018-02-15T07:15:35.004Z,15.23
2018-02-15T07:18:02.409Z,12.10
2018-02-15T07:20:29.802Z,14.97
2018-02-15T07:22:57.223Z,14.67
2018-02-15T07:25:24.618Z,14.70
2018-02-15T07:27:52.035Z,12.23
2018-02-15T07:30:19.432Z,12.93
2018-02-15T07:32:46.844Z,13.73
2018-02-15T07:35:14.237Z,11.47
2018-02-15T07:37:41.858Z,10.00
2018-02-15T07:40:09.269Z,28.10
2018-02-15T07:42:36.687Z,13.27
2018-02-15T07:45:04.084Z,16.00
2018-02-15T07:47:31.497Z,11.53
2018-02-15T07:49:58.900Z,18.30
2018-02-15T07:52:26.307Z,16.65
2018-02-15T07:54:53.717Z,11.53
2018-02-15T07:57:21.127Z,13.67
2018-02-15T07:59:48.542Z,15.48
2018-02-15T08:02:15.956Z,15.47
2018-02-15T08:04:43.369Z,14.97
2018-02-15T08:07:10.797Z,26.90
2018-02-15T08:09:38.206Z,16.40
2018-02-15T08:12:05.626Z,15.77
2018-02-15T08:14:33.037Z,14.53
2018-02-15T08:17:00.458Z,12.67
2018-02-15T08:19:27.864Z,13.77
2018-02-15T08:21:55.270Z,17.77
2018-02-15T08:24:22.693Z,13.73
2018-02-15T08:26:50.103Z,13.43
2018-02-15T08:29:17.526Z,21.57
2018-02-15T08:31:44.929Z,19.27
2018-02-15T08:34:12.350Z,20.00
2018-02-15T08:36:39.760Z,20.70
2018-02-15T08:39:07.175Z,15.53
2018-02-15T08:41:34.573Z,16.73
2018-02-15T08:44:02.008Z,19.20
2018-02-15T08:46:29.485Z,20.90
2018-02-15T08:48:56.903Z,23.73
2018-02-15T08:51:24.305Z,22.33
2018-02-15T08:53:51.722Z,21.40
2018-02-15T08:56:20.227Z,24.13
2018-02-15T08:58:47.684Z,21.77
2018-02-15T09:01:15.087Z,15.13
2018-02-15T09:03:42.516Z,19.80
2018-02-15T09:06:09.912Z,18.07
2018-02-15T09:08:37.327Z,16.93
2018-02-15T09:11:04.750Z,21.00
2018-02-15T09:13:32.151Z,18.03
2018-02-15T09:15:59.560Z,20.77
2018-02-15T09:18:26.985Z,22.33
2018-02-15T09:20:54.393Z,18.43
2018-02-15T09:23:21.802Z,20.00
2018-02-15T09:25:49.214Z,17.40
2018-02-15T09:28:16.625Z,16.42
2018-02-15T09:30:44.038Z,14.70
2018-02-15T09:33:11.456Z,17.90
2018-02-15T09:35:38.870Z,15.30
2018-02-15T09:38:06.273Z,14.50
2018-02-15T09:40:33.698Z,15.30
2018-02-15T09:43:01.100Z,17.90
2018-02-15T09:45:28.533Z,15.70
2018-02-15T09:47:55.928Z,17.53
2018-02-15T09:50:23.353Z,14.20
2018-02-15T09:52:50.753Z,14.73
2018-02-15T09:55:18.204Z,21.53
2018-02-15T09:57:45.617Z,17.60
2018-02-15T10:00:13.030Z,14.17
2018-02-15T10:02:40.437Z,17.93
2018-02-15T10:05:07.849Z,18.83
2018-02-15T10:07:35.885Z,15.90
2018-02-15T10:10:03.303Z,13.17
2018-02-15T10:12:30.700Z,15.07
2018-02-15T10:14:58.116Z,19.57
2018-02-15T10:17:25.520Z,20.30
2018-02-15T10:19:52.941Z,17.73
2018-02-15T10:22:20.349Z,17.67
2018-02-15T10:24:47.794Z,16.50
2018-02-15T10:27:15.201Z,17.93
2018-02-15T10:29:43.612Z,15.97
2018-02-15T10:32:11.026Z,14.80
2018-02-15T10:34:38.441Z,19.60
2018-02-15T10:37:05.851Z,20.43
2018-02-15T10:39:33.282Z,16.83
2018-02-15T10:42:00.684Z,15.65
2018-02-15T10:44:28.101Z,13.63
2018-02-15T10:46:56.044Z,15.93
2018-02-15T10:49:23.445Z,15.60
2018-02-15T10:51:50.856Z,18.43
2018-02-15T10:54:18.293Z,13.60
2018-02-15T10:56:45.704Z,15.70
2018-02-15T10:59:13.109Z,18.60
2018-02-15T11:01:41.542Z,16.87
2018-02-15T11:07:15.710Z,26.92
2018-02-15T11:09:43.116Z,17.90
2018-02-15T11:12:10.540Z,16.67
2018-02-15T11:14:37.947Z,18.87
2018-02-15T11:17:05.375Z,16.60
2018-02-15T11:19:32.782Z,16.20
2018-02-15T11:22:00.198Z,17.37
2018-02-15T11:24:27.615Z,16.53
2018-02-15T11:26:55.079Z,17.42
2018-02-15T11:29:22.498Z,21.00
2018-02-15T11:31:49.914Z,18.77
2018-02-15T11:34:17.341Z,19.48
2018-02-15T11:36:44.760Z,22.27
2018-02-15T11:39:12.185Z,22.00
2018-02-15T11:41:39.641Z,20.88
2018-02-15T11:44:07.045Z,23.50
2018-02-15T11:46:34.467Z,22.50
2018-02-15T11:49:01.878Z,17.43
2018-02-15T11:51:29.316Z,21.87
2018-02-15T11:53:56.741Z,24.67
2018-02-15T11:56:24.145Z,26.27
2018-02-15T11:58:51.632Z,22.37
2018-02-15T12:01:19.058Z,22.17
2018-02-15T12:03:46.512Z,22.10
2018-02-15T12:06:13.942Z,20.23
2018-02-15T12:08:41.369Z,26.25
2018-02-15T12:11:08.777Z,26.73
2018-02-15T12:13:36.227Z,28.80
2018-02-15T12:16:03.670Z,31.37
2018-02-15T12:18:31.177Z,27.17
2018-02-15T12:20:58.945Z,27.10
2018-02-15T12:23:26.392Z,28.57
2018-02-15T12:25:53.809Z,30.90
2018-02-15T12:28:21.249Z,28.80
2018-02-15T12:30:48.668Z,32.73
2018-02-15T12:33:16.084Z,35.03
2018-02-15T12:35:43.498Z,33.37
2018-02-15T12:38:10.906Z,31.83
2018-02-15T12:40:38.342Z,28.47
2018-02-15T12:43:05.773Z,30.37
2018-02-15T12:45:33.189Z,29.17
2018-02-15T12:48:00.646Z,27.98
2018-02-15T12:50:28.061Z,29.23
2018-02-15T12:52:55.464Z,30.00
2018-02-15T12:55:22.901Z,29.35
2018-02-15T12:57:50.312Z,41.77
2018-02-15T13:00:17.737Z,33.37
2018-02-15T13:02:45.172Z,31.85
2018-02-15T13:05:12.591Z,30.00
2018-02-15T13:07:40.013Z,29.07
2018-02-15T13:10:07.455Z,32.30
2018-02-15T13:12:46.757Z,35.20
2018-02-15T13:15:26.076Z,31.37
2018-02-15T13:17:53.491Z,25.60
2018-02-15T13:20:20.906Z,33.33
2018-02-15T13:22:48.439Z,33.43
2018-02-15T13:25:15.896Z,32.50
2018-02-15T13:27:55.233Z,30.17
2018-02-15T13:30:22.649Z,34.33
2018-02-15T13:32:50.069Z,29.60
2018-02-15T13:35:17.475Z,25.43
2018-02-15T13:37:44.894Z,32.67
2018-02-15T13:40:12.313Z,28.23
2018-02-15T13:42:39.736Z,28.87
2018-02-15T13:45:07.195Z,31.30
2018-02-15T13:47:34.608Z,31.17
2018-02-15T13:50:02.038Z,29.33
2018-02-15T13:52:29.460Z,27.53
2018-02-15T13:54:56.889Z,31.67
2018-02-15T13:57:24.304Z,27.40
2018-02-15T13:59:51.834Z,32.20
2018-02-15T14:02:19.251Z,32.93
2018-02-15T14:04:46.663Z,25.33
2018-02-15T14:07:14.137Z,27.47
2018-02-15T14:09:41.649Z,31.20
2018-02-15T14:12:09.072Z,34.20
2018-02-15T14:14:36.514Z,30.45
2018-02-15T14:17:03.951Z,26.83
2018-02-15T14:19:31.376Z,32.13
2018-02-15T14:21:58.823Z,28.42
2018-02-15T14:24:26.230Z,27.20
2018-02-15T14:26:53.660Z,26.90
2018-02-15T14:29:21.067Z,29.10
2018-02-15T14:31:48.495Z,24.10
2018-02-15T14:34:16.002Z,25.33
2018-02-15T14:36:43.505Z,24.80
2018-02-15T14:39:10.912Z,24.30
2018-02-15T14:41:38.366Z,29.83
2018-02-15T14:44:05.773Z,23.93
2018-02-15T14:46:33.942Z,24.90
2018-02-15T14:49:01.358Z,33.17
2018-02-15T14:51:28.778Z,28.10
2018-02-15T14:53:56.174Z,33.47
2018-02-15T14:56:23.613Z,28.37
2018-02-15T14:58:51.026Z,30.30
2018-02-15T15:01:18.433Z,28.57
2018-02-15T15:03:45.852Z,32.27
2018-02-15T15:06:13.274Z,31.23
2018-02-15T15:08:40.677Z,31.17
2018-02-15T15:11:08.120Z,29.73
2018-02-15T15:13:35.595Z,28.30
2018-02-15T15:16:03.029Z,28.43
2018-02-15T15:18:30.441Z,32.80
2018-02-15T15:20:57.861Z,36.77
2018-02-15T15:23:25.325Z,32.00
2018-02-15T15:25:52.742Z,34.37
2018-02-15T15:28:20.814Z,36.37
2018-02-15T15:30:48.256Z,35.20
2018-02-15T15:33:15.657Z,38.27
2018-02-15T15:35:43.077Z,31.07
2018-02-15T15:38:10.492Z,26.85
2018-02-15T15:40:37.942Z,37.10
2018-02-15T15:43:06.528Z,27.27
2018-02-15T15:45:33.933Z,34.38
2018-02-15T15:48:01.385Z,31.70
2018-02-15T15:50:28.793Z,32.83
2018-02-15T15:52:56.236Z,30.43
2018-02-15T15:55:23.632Z,33.03
2018-02-15T15:57:51.057Z,28.87
2018-02-15T16:00:18.490Z,32.07
2018-02-15T16:02:45.958Z,29.57
2018-02-15T16:05:13.377Z,34.60
2018-02-15T16:07:40.807Z,28.48
2018-02-15T16:10:08.241Z,30.80
2018-02-15T16:12:35.666Z,32.13
2018-02-15T16:15:03.074Z,34.50
2018-02-15T16:17:30.485Z,27.83
2018-02-15T16:19:57.892Z,32.50
2018-02-15T16:22:25.305Z,22.30
2018-02-15T16:24:52.719Z,30.23
2018-02-15T16:27:20.170Z,33.03
2018-02-15T16:29:47.592Z,25.53
2018-02-15T16:32:15.021Z,30.10
2018-02-15T16:34:42.431Z,28.13
2018-02-15T16:37:09.883Z,29.50
2018-02-15T16:39:38.028Z,33.85
2018-02-15T16:42:05.493Z,29.20
2018-02-15T16:44:32.897Z,24.83
2018-02-15T16:47:00.323Z,27.70
2018-02-15T16:49:27.735Z,34.87
2018-02-15T16:51:55.222Z,31.03
2018-02-15T16:54:22.629Z,36.13
2018-02-15T16:56:50.046Z,36.37
2018-02-15T16:59:17.534Z,25.17
2018-02-15T17:01:44.961Z,30.90
2018-02-15T17:04:14.330Z,32.13
2018-02-15T17:06:41.737Z,33.17
2018-02-15T17:09:09.168Z,36.40
2018-02-15T17:11:36.586Z,37.77
2018-02-15T17:14:04.085Z,35.60
2018-02-15T17:16:32.006Z,34.10
2018-02-15T17:18:59.421Z,36.73
2018-02-15T17:21:26.840Z,37.53
2018-02-15T17:23:54.252Z,29.53
2018-02-15T17:26:21.664Z,28.43
2018-02-15T17:28:49.083Z,31.87
2018-02-15T17:31:16.488Z,29.63
2018-02-15T17:33:43.918Z,31.23
2018-02-15T17:36:11.330Z,37.17
2018-02-15T17:38:39.773Z,34.70
2018-02-15T17:41:07.207Z,43.50
2018-02-15T17:43:34.626Z,42.07
2018-02-15T17:46:02.066Z,37.23
2018-02-15T17:48:29.491Z,40.03
2018-02-15T17:50:56.910Z,33.77
2018-02-15T17:53:24.325Z,39.60
2018-02-15T17:55:51.737Z,38.60
2018-02-15T17:58:19.145Z,39.87
2018-02-15T18:00:46.582Z,38.63
2018-02-15T18:03:14.041Z,41.28
2018-02-15T18:05:41.409Z,45.87
2018-02-15T18:08:08.822Z,43.43
2018-02-15T18:10:36.234Z,47.78
2018-02-15T18:13:03.647Z,49.13
2018-02-15T18:15:31.079Z,50.93
2018-02-15T18:17:58.512Z,54.97
2018-02-15T18:20:25.940Z,69.30
2018-02-15T18:22:53.340Z,78.97
2018-02-15T18:25:20.761Z,69.15
2018-02-15T18:27:48.164Z,65.43
2018-02-15T18:30:15.629Z,66.37
2018-02-15T18:32:43.052Z,67.25
2018-02-15T18:35:10.506Z,73.03
2018-02-15T18:37:37.950Z,68.10
2018-02-15T18:40:05.369Z,85.37
2018-02-15T18:42:32.784Z,97.33
2018-02-15T18:45:00.203Z,65.27
2018-02-15T18:47:27.676Z,69.20
2018-02-15T18:49:55.142Z,64.93
2018-02-15T18:52:22.599Z,63.57
2018-02-15T18:54:50.020Z,69.63
2018-02-15T18:57:17.424Z,54.60
2018-02-15T18:59:44.845Z,70.67
2018-02-15T19:02:12.753Z,61.83
2018-02-15T19:04:40.173Z,76.27
2018-02-15T19:07:07.582Z,64.40
2018-02-15T19:09:35.006Z,74.57
2018-02-15T19:12:02.425Z,70.53
2018-02-15T19:14:29.841Z,73.60
2018-02-15T19:16:57.254Z,86.30
2018-02-15T19:19:24.690Z,77.93
2018-02-15T19:21:52.139Z,82.90
2018-02-15T19:24:19.613Z,81.10
2018-02-15T19:26:47.045Z,102.43
2018-02-15T19:29:14.805Z,93.80
2018-02-15T19:31:42.238Z,102.63
2018-02-15T19:34:09.750Z,103.37
2018-02-15T19:36:37.202Z,122.97
2018-02-15T19:39:04.638Z,113.40
2018-02-15T19:41:32.120Z,105.65
2018-02-15T19:43:59.550Z,94.13
2018-02-15T19:46:26.969Z,105.87
2018-02-15T19:48:54.385Z,116.20
2018-02-15T19:51:21.825Z,99.40
2018-02-15T19:53:49.236Z,115.60
2018-02-15T19:56:16.665Z,109.78
2018-02-15T19:58:44.077Z,72.90
2018-02-15T20:01:11.568Z,100.80
2018-02-15T20:03:38.969Z,93.50
2018-02-15T20:06:06.389Z,80.53
2018-02-15T20:08:33.803Z,72.23
2018-02-15T20:11:01.213Z,89.03
2018-02-15T20:13:28.649Z,80.40
2018-02-15T20:15:56.060Z,74.83
2018-02-15T20:18:23.477Z,89.20
2018-02-15T20:20:50.897Z,137.20
2018-02-15T20:23:18.307Z,118.63
2018-02-15T20:28:47.066Z,106.37
2018-02-15T20:31:14.476Z,145.77
2018-02-15T20:33:41.881Z,134.83
2018-02-15T20:36:09.307Z,101.73
2018-02-15T20:38:42.274Z,148.77
2018-02-15T20:41:09.684Z,112.00
2018-02-15T20:43:37.092Z,128.32
2018-02-15T20:46:04.505Z,118.53
2018-02-15T20:48:31.942Z,112.13
2018-02-15T20:51:05.025Z,134.85
2018-02-15T20:53:38.106Z,124.60
2018-02-15T20:56:05.527Z,98.63
2018-02-15T20:58:32.924Z,71.80
2018-02-15T21:01:00.332Z,91.37
2018-02-15T21:03:27.737Z,79.43
2018-02-15T21:05:55.146Z,82.37
2018-02-15T21:08:22.554Z,102.10
2018-02-15T21:10:49.989Z,81.57
2018-02-15T21:13:17.401Z,83.23
2018-02-15T21:15:44.812Z,83.57
2018-02-15T21:18:12.212Z,83.40
2018-02-15T21:20:39.622Z,75.33
2018-02-15T21:23:07.044Z,83.03
2018-02-15T21:25:34.443Z,69.47
2018-02-15T21:28:01.861Z,76.50
2018-02-15T21:30:29.256Z,74.77
2018-02-15T21:32:56.680Z,75.37
2018-02-15T21:35:24.080Z,68.73
2018-02-15T21:37:51.492Z,77.43
2018-02-15T21:40:18.897Z,74.77
2018-02-15T21:42:46.320Z,73.73
2018-02-15T21:45:13.720Z,75.93
2018-02-15T21:47:41.140Z,79.12
2018-02-15T21:50:08.528Z,63.80
2018-02-15T21:52:35.951Z,70.80
2018-02-15T21:55:03.352Z,71.33
2018-02-15T21:57:30.770Z,73.07
2018-02-15T22:02:40.128Z,55.72
2018-02-15T22:05:07.520Z,59.77
2018-02-15T22:07:34.940Z,70.30
2018-02-15T22:10:02.347Z,73.93
2018-02-15T22:12:29.749Z,83.23
2018-02-15T22:14:57.149Z,70.60
2018-02-15T22:17:24.564Z,67.05
2018-02-15T22:19:52.803Z,92.43
2018-02-15T22:22:20.190Z,93.03
2018-02-15T22:24:47.589Z,81.03
2018-02-15T22:27:15.022Z,79.53
2018-02-15T22:29:42.428Z,75.93
2018-02-15T22:32:09.841Z,76.70
2018-02-15T22:34:37.254Z,92.43
2018-02-15T22:37:04.644Z,86.33
2018-02-15T22:39:32.065Z,91.50
2018-02-15T22:41:59.465Z,90.47
2018-02-15T22:44:26.876Z,87.87
2018-02-15T22:46:54.272Z,71.43
2018-02-15T22:49:21.684Z,82.93
2018-02-15T22:51:49.085Z,67.40
2018-02-15T22:54:16.502Z,69.12
2018-02-15T22:56:43.937Z,67.70
2018-02-15T22:59:11.317Z,65.57
2018-02-15T23:01:38.718Z,70.28
2018-02-15T23:04:06.133Z,63.13
2018-02-15T23:06:33.554Z,54.77
2018-02-15T23:09:00.971Z,65.57
2018-02-15T23:11:28.368Z,49.92
2018-02-15T23:13:55.815Z,53.10
2018-02-15T23:16:23.192Z,43.73
2018-02-15T23:18:50.605Z,55.20
2018-02-15T23:21:18.012Z,45.87
2018-02-15T23:23:45.512Z,53.10
2018-02-15T23:26:12.905Z,63.20
2018-02-15T23:28:40.325Z,51.83
2018-02-15T23:31:07.726Z,55.00
2018-02-15T23:33:35.147Z,53.63
2018-02-15T23:36:02.544Z,64.65
2018-02-15T23:38:29.952Z,59.30
2018-02-15T23:40:57.365Z,47.00
2018-02-15T23:43:25.003Z,53.53
2018-02-15T23:45:52.419Z,53.57
2018-02-15T23:48:19.826Z,61.95
2018-02-15T23:50:47.244Z,63.17
2018-02-15T23:53:14.635Z,47.27
2018-02-15T23:55:42.054Z,62.10
2018-02-15T23:58:09.452Z,64.83
